Terminal Aerodrome Forecast
Issued by NWS North Platte, NE

Home | Current Version | Previous Version | Text Only | Print | Product List | Glossary Off
Versions: 1 2 3 4 5 6 7 8 9 10 11 12 13 14 15 16 17 18 19 20 21

000
FTUS43 KLBF 151700
TAFVTN
TAF
KVTN 151728Z 1518/1618 21017G25KT P6SM SCT200
     FM160000 21013KT P6SM BKN200
     FM160700 29014G21KT P6SM OVC050
     FM161100 31021G30KT P6SM SCT025 OVC050=

USA.gov is the U.S. government's official web portal to all federal, state and local government web resources and services.